METAR Data
IDs: Format: Raw Decoded Include TAF

Data at: 2234 UTC 25 Oct 2021

PAFE 252156Z AUTO 14004KT 10SM OVC075 06/04 A2912 RMK AO2 SLP872 T00610044 $
PAFE 252056Z AUTO 00000KT 10SM OVC070 06/03 A2911 RMK AO2 SLP870 60000 T00610033 50001 $
PAFE 251956Z AUTO 00000KT 10SM OVC060 05/04 A2912 RMK AO2 RAE46 SLP872 P0000 T00500039 $
PAFE 251756Z AUTO 06003KT 10SM OVC065 04/03 A2911 RMK AO2 SLP869 60000 T00390033 10039 20022 53001 $
PAFE 251656Z AUTO 00000KT 10SM BKN065 OVC100 03/02 A2910 RMK AO2 RAE14 SLP867 P0000 T00330022 $
PAFE 251556Z AUTO 00000KT 10SM -RA BKN060 OVC075 03/02 A2911 RMK AO2 RAB08 SLP867 P0000 T00330022 $
PAFE 251456Z AUTO 00000KT 10SM OVC075 03/02 A2911 RMK AO2 RAB04E20 SLP869 P0000 60000 T00330017 58007 $
PAFE 251356Z AUTO 08004KT 10SM OVC070 03/02 A2912 RMK AO2 SLP872 T00330017 $
PAFE 251256Z AUTO 06003KT 10SM OVC075 03/02 A2912 RMK AO2 SLP873 T00280017 $
PAFE 251156Z AUTO 30003KT 10SM BKN075 03/01 A2913 RMK AO2 SLP875 T00280011 10044 21006 58011 $
PAFE 251056Z AUTO 00000KT 10SM CLR 01/01 A2914 RMK AO2 SLP880 T00110006 FZRANO $
PAFE 250956Z AUTO 00000KT 10SM CLR 01/01 A2915 RMK AO2 SLP883 T00110006 FZRANO $
PAFE 250856Z AUTO 00000KT 10SM CLR 01/M01 A2916 RMK AO2 SLP887 T00111006 400941006 58004 FZRANO $
PAFE 250756Z AUTO 04003KT 10SM CLR 00/M01 A2917 RMK AO2 SLP889 T00001011 FZRANO $
PAFE 250656Z AUTO 06006KT 10SM CLR M01/M01 A2918 RMK AO2 SLP893 T10061011 FZRANO $
PAFE 250556Z AUTO 00000KT 10SM CLR 00/M01 A2917 RMK AO2 SLP892 T00001011 10089 20000 50003 FZRANO $
PAFE 250456Z AUTO 06006KT 10SM CLR 01/M01 A2918 RMK AO2 SLP893 T00061006 FZRANO $
PAFE 250356Z AUTO 06005KT 10SM CLR 01/M01 A2917 RMK AO2 SLP891 T00111006 FZRANO $
PAFE 250256Z AUTO 00000KT 10SM CLR 03/00 A2917 RMK AO2 SLP888 T00280000 58007 $
PAFE 250156Z AUTO 00000KT 10SM CLR 03/01 A2917 RMK AO2 SLP891 T00280011 $
PAFE 250056Z AUTO 00000KT 10SM CLR 08/01 A2918 RMK AO2 SLP894 T00780011 $
PAFE 242356Z AUTO VRB04KT 10SM CLR 08/01 A2919 RMK AO2 SLP895 T00830011 10094 20061 56026 $
PAFE 242256Z AUTO VRB04KT 10SM CLR 09/02 A2921 RMK AO2 SLP901 T00890017 $
PAFE 242056Z AUTO VRB05KT 10SM CLR 08/02 A2926 RMK AO2 SLP922 T00780022 57027 $
PAFE 241956Z AUTO 04007KT 10SM CLR 07/03 A2930 RMK AO2 SLP932 T00670028 $
PAFE 241856Z AUTO VRB03KT 10SM CLR 06/03 A2932 RMK AO2 SLP939 T00610033 $
PAFE 241756Z AUTO VRB06KT 10SM CLR 06/03 A2935 RMK AO2 SLP949 T00610033 10061 20033 58025 $
PAFE 241656Z AUTO VRB05G14KT 10SM CLR 06/03 A2938 RMK AO2 SLP961 T00560033 $
PAFE 241556Z AUTO 04009G14KT 10SM CLR 05/04 A2940 RMK AO2 SLP966 T00500039 $
PAFE 241456Z AUTO 06006KT 10SM CLR 05/04 A2942 RMK AO2 SLP975 T00500039 56015 $
PAFE 241356Z AUTO 05008KT 10SM FEW060 06/04 A2943 RMK AO2 SLP978 T00560039 $
PAFE 241256Z AUTO 06005KT 10SM SCT050 05/03 A2945 RMK AO2 SLP985 T00500033 $
PAFE 241156Z AUTO 07006KT 10SM BKN048 OVC080 03/03 A2947 RMK AO2 SLP990 60000 70030 T00330028 10056 20017 58007 $
PAFE 241056Z AUTO 07006KT 10SM OVC042 03/02 A2948 RMK AO2 SLP995 T00280022 $